sensor_id;sensor_type;location;lat;lon;timestamp;pressure;altitude;pressure_sealevel;temperature;humidity
34103;BME280;20381;54.498;18.206;2023-07-09T00:00:15;100269.88;;;11.37;64.31
34103;BME280;20381;54.498;18.206;2023-07-09T00:02:44;100264.64;;;11.37;64.47
34103;BME280;20381;54.498;18.206;2023-07-09T00:05:15;100266.28;;;11.40;64.66
34103;BME280;20381;54.498;18.206;2023-07-09T00:07:40;100270.64;;;11.39;65.00
34103;BME280;20381;54.498;18.206;2023-07-09T00:10:15;100264.70;;;11.36;64.71
34103;BME280;20381;54.498;18.206;2023-07-09T00:12:42;100268.41;;;11.30;64.88
34103;BME280;20381;54.498;18.206;2023-07-09T00:15:11;100272.22;;;11.23;64.88
34103;BME280;20381;54.498;18.206;2023-07-09T00:17:37;100269.19;;;11.22;65.09
34103;BME280;20381;54.498;18.206;2023-07-09T00:20:09;100264.37;;;11.23;65.31
34103;BME280;20381;54.498;18.206;2023-07-09T00:22:37;100262.52;;;11.25;65.32
34103;BME280;20381;54.498;18.206;2023-07-09T00:25:04;100261.63;;;11.26;65.39
34103;BME280;20381;54.498;18.206;2023-07-09T00:27:30;100258.55;;;11.27;65.43
34103;BME280;20381;54.498;18.206;2023-07-09T00:29:57;100268.67;;;11.24;65.63
34103;BME280;20381;54.498;18.206;2023-07-09T00:32:23;100268.30;;;11.23;65.76
34103;BME280;20381;54.498;18.206;2023-07-09T00:34:52;100266.86;;;11.26;65.87
34103;BME280;20381;54.498;18.206;2023-07-09T00:37:21;100259.02;;;11.26;65.94
34103;BME280;20381;54.498;18.206;2023-07-09T00:39:48;100268.55;;;11.27;65.98
34103;BME280;20381;54.498;18.206;2023-07-09T00:42:20;100274.63;;;11.28;66.07
34103;BME280;20381;54.498;18.206;2023-07-09T00:44:53;100274.63;;;11.28;66.20
34103;BME280;20381;54.498;18.206;2023-07-09T00:53:04;100274.67;;;11.16;66.20
34103;BME280;20381;54.498;18.206;2023-07-09T00:55:31;100276.23;;;11.10;66.38
34103;BME280;20381;54.498;18.206;2023-07-09T00:58:01;100274.13;;;11.08;66.48
34103;BME280;20381;54.498;18.206;2023-07-09T01:00:32;100275.56;;;11.05;66.55
34103;BME280;20381;54.498;18.206;2023-07-09T01:03:00;100277.72;;;11.05;66.71
34103;BME280;20381;54.498;18.206;2023-07-09T01:05:27;100285.22;;;11.03;66.72
34103;BME280;20381;54.498;18.206;2023-07-09T01:07:53;100283.53;;;11.02;66.76
34103;BME280;20381;54.498;18.206;2023-07-09T01:10:19;100277.38;;;11.03;66.92
34103;BME280;20381;54.498;18.206;2023-07-09T01:12:47;100276.58;;;11.01;67.08
34103;BME280;20381;54.498;18.206;2023-07-09T01:15:15;100276.20;;;11.00;67.09
34103;BME280;20381;54.498;18.206;2023-07-09T01:17:42;100281.17;;;10.95;67.12
34103;BME280;20381;54.498;18.206;2023-07-09T01:20:15;100281.34;;;10.91;67.31
34103;BME280;20381;54.498;18.206;2023-07-09T01:22:40;100277.08;;;10.88;67.48
34103;BME280;20381;54.498;18.206;2023-07-09T01:25:07;100274.34;;;10.81;67.49
34103;BME280;20381;54.498;18.206;2023-07-09T01:27:39;100271.44;;;10.77;67.63
34103;BME280;20381;54.498;18.206;2023-07-09T01:30:15;100262.80;;;10.75;67.82
34103;BME280;20381;54.498;18.206;2023-07-09T01:32:42;100274.29;;;10.71;67.77
34103;BME280;20381;54.498;18.206;2023-07-09T01:35:14;100274.53;;;10.65;68.00
34103;BME280;20381;54.498;18.206;2023-07-09T01:37:41;100271.37;;;10.57;67.95
34103;BME280;20381;54.498;18.206;2023-07-09T01:40:11;100271.99;;;10.51;68.01
34103;BME280;20381;54.498;18.206;2023-07-09T01:42:38;100278.76;;;10.45;68.05
34103;BME280;20381;54.498;18.206;2023-07-09T01:45:06;100269.33;;;10.41;68.19
34103;BME280;20381;54.498;18.206;2023-07-09T01:47:33;100276.39;;;10.39;68.20
34103;BME280;20381;54.498;18.206;2023-07-09T01:49:59;100281.27;;;10.37;68.32
34103;BME280;20381;54.498;18.206;2023-07-09T01:52:29;100280.80;;;10.37;68.60
34103;BME280;20381;54.498;18.206;2023-07-09T01:54:58;100283.30;;;10.40;68.82
34103;BME280;20381;54.498;18.206;2023-07-09T01:57:27;100280.56;;;10.43;68.88
34103;BME280;20381;54.498;18.206;2023-07-09T01:59:55;100283.18;;;10.43;68.97
34103;BME280;20381;54.498;18.206;2023-07-09T02:02:22;100277.95;;;10.43;68.90
34103;BME280;20381;54.498;18.206;2023-07-09T02:04:51;100277.95;;;10.43;69.04
34103;BME280;20381;54.498;18.206;2023-07-09T02:07:19;100277.95;;;10.43;69.13
34103;BME280;20381;54.498;18.206;2023-07-09T02:09:46;100281.37;;;10.45;69.22
34103;BME280;20381;54.498;18.206;2023-07-09T02:12:15;100281.25;;;10.48;69.29
34103;BME280;20381;54.498;18.206;2023-07-09T02:14:43;100280.20;;;10.52;69.40
34103;BME280;20381;54.498;18.206;2023-07-09T02:17:11;100280.00;;;10.59;69.50
34103;BME280;20381;54.498;18.206;2023-07-09T02:19:38;100286.80;;;10.63;69.45
34103;BME280;20381;54.498;18.206;2023-07-09T02:22:06;100289.41;;;10.63;69.47
34103;BME280;20381;54.498;18.206;2023-07-09T02:24:33;100290.20;;;10.65;69.60
34103;BME280;20381;54.498;18.206;2023-07-09T02:27:02;100292.86;;;10.63;69.54
34103;BME280;20381;54.498;18.206;2023-07-09T02:29:30;100296.86;;;10.62;69.73
34103;BME280;20381;54.498;18.206;2023-07-09T02:31:59;100304.39;;;10.58;69.55
34103;BME280;20381;54.498;18.206;2023-07-09T02:34:26;100307.12;;;10.55;69.81
34103;BME280;20381;54.498;18.206;2023-07-09T02:36:54;100303.50;;;10.59;70.07
34103;BME280;20381;54.498;18.206;2023-07-09T02:39:22;100292.14;;;10.60;70.10
34103;BME280;20381;54.498;18.206;2023-07-09T02:41:49;100287.72;;;10.62;70.20
34103;BME280;20381;54.498;18.206;2023-07-09T02:44:17;100293.44;;;10.60;70.18
34103;BME280;20381;54.498;18.206;2023-07-09T02:46:44;100287.92;;;10.56;70.21
34103;BME280;20381;54.498;18.206;2023-07-09T02:49:12;100288.05;;;10.52;70.40
34103;BME280;20381;54.498;18.206;2023-07-09T02:51:40;100286.35;;;10.51;70.50
34103;BME280;20381;54.498;18.206;2023-07-09T02:54:07;100282.05;;;10.50;70.50
34103;BME280;20381;54.498;18.206;2023-07-09T02:56:38;100287.78;;;10.48;70.53
34103;BME280;20381;54.498;18.206;2023-07-09T02:59:02;100282.59;;;10.47;70.65
34103;BME280;20381;54.498;18.206;2023-07-09T03:01:29;100288.36;;;10.45;70.66
34103;BME280;20381;54.498;18.206;2023-07-09T03:03:56;100289.32;;;10.42;70.72
34103;BME280;20381;54.498;18.206;2023-07-09T03:06:24;100298.84;;;10.43;71.16
34103;BME280;20381;54.498;18.206;2023-07-09T03:08:51;100294.92;;;10.43;71.23
34103;BME280;20381;54.498;18.206;2023-07-09T03:11:18;100291.81;;;10.45;71.33
34103;BME280;20381;54.498;18.206;2023-07-09T03:13:46;100296.00;;;10.49;71.51
34103;BME280;20381;54.498;18.206;2023-07-09T03:16:14;100294.06;;;10.55;71.61
34103;BME280;20381;54.498;18.206;2023-07-09T03:18:40;100296.86;;;10.62;71.73
34103;BME280;20381;54.498;18.206;2023-07-09T03:21:06;100298.59;;;10.73;71.88
34103;BME280;20381;54.498;18.206;2023-07-09T03:23:33;100307.62;;;10.76;71.46
34103;BME280;20381;54.498;18.206;2023-07-09T03:25:59;100308.92;;;10.76;71.72
34103;BME280;20381;54.498;18.206;2023-07-09T03:28:26;100308.38;;;10.78;71.91
34103;BME280;20381;54.498;18.206;2023-07-09T03:30:54;100315.35;;;10.89;72.21
34103;BME280;20381;54.498;18.206;2023-07-09T03:33:22;100317.09;;;11.01;72.38
34103;BME280;20381;54.498;18.206;2023-07-09T03:35:50;100311.52;;;11.10;72.33
34103;BME280;20381;54.498;18.206;2023-07-09T03:38:17;100311.59;;;11.18;72.54
34103;BME280;20381;54.498;18.206;2023-07-09T03:40:43;100314.97;;;11.32;72.71
34103;BME280;20381;54.498;18.206;2023-07-09T03:43:09;100318.45;;;11.43;72.86
34103;BME280;20381;54.498;18.206;2023-07-09T03:45:37;100315.49;;;11.51;72.85
34103;BME280;20381;54.498;18.206;2023-07-09T03:48:05;100311.54;;;11.62;72.96
34103;BME280;20381;54.498;18.206;2023-07-09T03:50:31;100311.52;;;11.73;73.07
34103;BME280;20381;54.498;18.206;2023-07-09T03:52:57;100303.59;;;11.84;73.39
34103;BME280;20381;54.498;18.206;2023-07-09T03:55:23;100309.80;;;11.94;73.29
34103;BME280;20381;54.498;18.206;2023-07-09T03:57:56;100311.48;;;12.05;73.57
34103;BME280;20381;54.498;18.206;2023-07-09T04:00:22;100304.89;;;12.36;73.72
34103;BME280;20381;54.498;18.206;2023-07-09T04:02:51;100304.89;;;12.36;73.72
34103;BME280;20381;54.498;18.206;2023-07-09T04:05:18;100306.55;;;12.47;73.72
34103;BME280;20381;54.498;18.206;2023-07-09T04:07:45;100311.59;;;12.60;73.73
34103;BME280;20381;54.498;18.206;2023-07-09T04:10:13;100317.12;;;12.73;73.74
34103;BME280;20381;54.498;18.206;2023-07-09T04:12:39;100312.33;;;12.83;73.91
34103;BME280;20381;54.498;18.206;2023-07-09T04:15:07;100313.73;;;12.98;74.09
34103;BME280;20381;54.498;18.206;2023-07-09T04:17:34;100309.14;;;13.12;74.16
34103;BME280;20381;54.498;18.206;2023-07-09T04:20:01;100304.10;;;13.27;74.38
34103;BME280;20381;54.498;18.206;2023-07-09T04:22:30;100311.60;;;13.34;74.26
34103;BME280;20381;54.498;18.206;2023-07-09T04:24:56;100317.38;;;13.41;74.35
34103;BME280;20381;54.498;18.206;2023-07-09T04:27:24;100317.70;;;13.52;74.47
34103;BME280;20381;54.498;18.206;2023-07-09T04:29:53;100317.10;;;13.64;74.68
34103;BME280;20381;54.498;18.206;2023-07-09T04:32:21;100318.16;;;13.78;74.75
34103;BME280;20381;54.498;18.206;2023-07-09T04:34:49;100325.26;;;13.93;74.78
34103;BME280;20381;54.498;18.206;2023-07-09T04:37:16;100327.17;;;14.07;74.85
34103;BME280;20381;54.498;18.206;2023-07-09T04:39:44;100320.26;;;14.22;74.94
34103;BME280;20381;54.498;18.206;2023-07-09T04:42:13;100322.09;;;14.37;75.06
34103;BME280;20381;54.498;18.206;2023-07-09T04:44:40;100322.42;;;14.55;75.12
34103;BME280;20381;54.498;18.206;2023-07-09T04:47:06;100319.35;;;14.72;75.29
34103;BME280;20381;54.498;18.206;2023-07-09T04:49:34;100321.89;;;14.89;75.22
34103;BME280;20381;54.498;18.206;2023-07-09T04:52:01;100312.75;;;15.04;75.18
34103;BME280;20381;54.498;18.206;2023-07-09T04:54:27;100305.88;;;15.17;75.00
34103;BME280;20381;54.498;18.206;2023-07-09T04:56:54;100313.27;;;15.33;75.24
34103;BME280;20381;54.498;18.206;2023-07-09T04:59:22;100307.87;;;15.51;75.42
34103;BME280;20381;54.498;18.206;2023-07-09T05:01:49;100312.25;;;15.66;75.39
34103;BME280;20381;54.498;18.206;2023-07-09T05:04:16;100318.16;;;15.85;75.72
34103;BME280;20381;54.498;18.206;2023-07-09T05:06:42;100311.00;;;16.02;75.47
34103;BME280;20381;54.498;18.206;2023-07-09T05:09:08;100314.22;;;16.21;75.48
34103;BME280;20381;54.498;18.206;2023-07-09T05:11:35;100310.66;;;16.37;75.44
34103;BME280;20381;54.498;18.206;2023-07-09T05:14:03;100316.67;;;16.53;75.58
34103;BME280;20381;54.498;18.206;2023-07-09T05:16:29;100320.41;;;16.70;75.49
34103;BME280;20381;54.498;18.206;2023-07-09T05:18:56;100317.96;;;16.89;75.64
34103;BME280;20381;54.498;18.206;2023-07-09T05:21:22;100319.59;;;17.04;75.53
34103;BME280;20381;54.498;18.206;2023-07-09T05:23:48;100326.34;;;17.15;75.36
34103;BME280;20381;54.498;18.206;2023-07-09T05:26:15;100327.60;;;17.30;75.50
34103;BME280;20381;54.498;18.206;2023-07-09T05:28:42;100332.61;;;17.47;75.46
34103;BME280;20381;54.498;18.206;2023-07-09T05:31:08;100332.36;;;17.64;75.62
34103;BME280;20381;54.498;18.206;2023-07-09T05:33:34;100328.61;;;17.81;75.47
34103;BME280;20381;54.498;18.206;2023-07-09T05:36:00;100334.43;;;17.99;75.50
34103;BME280;20381;54.498;18.206;2023-07-09T05:38:28;100332.21;;;18.19;75.36
34103;BME280;20381;54.498;18.206;2023-07-09T05:41:02;100336.20;;;18.37;75.11
34103;BME280;20381;54.498;18.206;2023-07-09T05:43:29;100335.14;;;18.52;75.02
34103;BME280;20381;54.498;18.206;2023-07-09T05:45:56;100336.10;;;18.70;74.84
34103;BME280;20381;54.498;18.206;2023-07-09T05:48:23;100334.92;;;18.87;74.61
34103;BME280;20381;54.498;18.206;2023-07-09T05:50:52;100339.58;;;19.01;74.18
34103;BME280;20381;54.498;18.206;2023-07-09T05:53:18;100333.69;;;19.22;74.33
34103;BME280;20381;54.498;18.206;2023-07-09T05:55:45;100326.08;;;19.41;74.11
34103;BME280;20381;54.498;18.206;2023-07-09T05:58:14;100324.19;;;19.60;73.58
34103;BME280;20381;54.498;18.206;2023-07-09T06:00:40;100321.99;;;19.73;73.08
34103;BME280;20381;54.498;18.206;2023-07-09T06:03:07;100319.72;;;19.85;72.47
34103;BME280;20381;54.498;18.206;2023-07-09T06:05:36;100319.25;;;19.97;72.39
34103;BME280;20381;54.498;18.206;2023-07-09T06:08:04;100318.19;;;20.16;72.51
34103;BME280;20381;54.498;18.206;2023-07-09T06:10:31;100316.62;;;20.30;71.88
34103;BME280;20381;54.498;18.206;2023-07-09T06:12:57;100308.08;;;20.44;71.59
34103;BME280;20381;54.498;18.206;2023-07-09T06:15:27;100312.81;;;20.57;71.23
34103;BME280;20381;54.498;18.206;2023-07-09T06:17:53;100317.11;;;20.75;70.93
34103;BME280;20381;54.498;18.206;2023-07-09T06:20:19;100318.89;;;20.91;70.80
34103;BME280;20381;54.498;18.206;2023-07-09T06:22:45;100322.23;;;21.10;70.07
34103;BME280;20381;54.498;18.206;2023-07-09T06:25:12;100322.36;;;21.03;69.59
34103;BME280;20381;54.498;18.206;2023-07-09T06:27:38;100322.94;;;21.18;69.70
34103;BME280;20381;54.498;18.206;2023-07-09T06:30:06;100321.38;;;21.15;68.30
34103;BME280;20381;54.498;18.206;2023-07-09T06:32:32;100321.61;;;21.18;68.18
34103;BME280;20381;54.498;18.206;2023-07-09T06:34:59;100319.49;;;21.33;68.25
34103;BME280;20381;54.498;18.206;2023-07-09T06:37:27;100303.51;;;21.50;67.91
34103;BME280;20381;54.498;18.206;2023-07-09T06:39:53;100312.92;;;21.90;67.93
34103;BME280;20381;54.498;18.206;2023-07-09T06:42:21;100317.69;;;22.23;67.02
34103;BME280;20381;54.498;18.206;2023-07-09T06:44:47;100313.34;;;22.52;66.65
34103;BME280;20381;54.498;18.206;2023-07-09T06:47:14;100325.44;;;22.76;66.38
34103;BME280;20381;54.498;18.206;2023-07-09T06:49:40;100329.39;;;22.97;65.92
34103;BME280;20381;54.498;18.206;2023-07-09T06:52:08;100319.58;;;22.97;65.06
34103;BME280;20381;54.498;18.206;2023-07-09T06:54:35;100320.38;;;23.42;65.86
34103;BME280;20381;54.498;18.206;2023-07-09T06:57:01;100315.62;;;23.99;65.66
34103;BME280;20381;54.498;18.206;2023-07-09T06:59:28;100290.77;;;24.35;64.26
34103;BME280;20381;54.498;18.206;2023-07-09T07:01:54;100312.88;;;24.83;64.16
34103;BME280;20381;54.498;18.206;2023-07-09T07:04:20;100318.90;;;25.31;63.07
34103;BME280;20381;54.498;18.206;2023-07-09T07:06:47;100320.77;;;25.52;62.90
34103;BME280;20381;54.498;18.206;2023-07-09T07:09:13;100312.39;;;25.91;62.68
34103;BME280;20381;54.498;18.206;2023-07-09T07:11:40;100320.84;;;26.77;62.89
34103;BME280;20381;54.498;18.206;2023-07-09T07:14:06;100318.30;;;27.83;62.19
34103;BME280;20381;54.498;18.206;2023-07-09T07:16:33;100321.39;;;29.11;61.80
34103;BME280;20381;54.498;18.206;2023-07-09T07:19:02;100309.69;;;30.47;60.83
34103;BME280;20381;54.498;18.206;2023-07-09T07:21:31;100314.06;;;31.31;59.19
34103;BME280;20381;54.498;18.206;2023-07-09T07:24:00;100316.61;;;31.43;57.21
34103;BME280;20381;54.498;18.206;2023-07-09T07:26:27;100313.11;;;31.60;56.53
34103;BME280;20381;54.498;18.206;2023-07-09T07:28:53;100306.88;;;32.16;56.09
34103;BME280;20381;54.498;18.206;2023-07-09T07:31:19;100309.16;;;33.35;55.00
34103;BME280;20381;54.498;18.206;2023-07-09T07:33:46;100310.41;;;34.42;54.04
34103;BME280;20381;54.498;18.206;2023-07-09T07:36:12;100311.26;;;35.51;52.86
34103;BME280;20381;54.498;18.206;2023-07-09T07:38:38;100312.48;;;36.23;50.55
34103;BME280;20381;54.498;18.206;2023-07-09T07:41:04;100319.50;;;36.13;50.26
34103;BME280;20381;54.498;18.206;2023-07-09T07:43:31;100314.81;;;37.38;49.28
34103;BME280;20381;54.498;18.206;2023-07-09T07:45:57;100316.79;;;38.46;47.46
34103;BME280;20381;54.498;18.206;2023-07-09T07:48:23;100316.11;;;39.10;45.81
34103;BME280;20381;54.498;18.206;2023-07-09T07:50:50;100317.64;;;39.71;44.84
34103;BME280;20381;54.498;18.206;2023-07-09T07:53:17;100317.98;;;40.55;43.46
34103;BME280;20381;54.498;18.206;2023-07-09T07:55:43;100309.38;;;41.52;41.96
34103;BME280;20381;54.498;18.206;2023-07-09T07:58:11;100307.73;;;42.46;40.61
34103;BME280;20381;54.498;18.206;2023-07-09T08:00:39;100308.39;;;43.10;39.07
34103;BME280;20381;54.498;18.206;2023-07-09T08:03:06;100305.37;;;43.73;37.09
34103;BME280;20381;54.498;18.206;2023-07-09T08:05:32;100308.20;;;44.33;36.33
34103;BME280;20381;54.498;18.206;2023-07-09T08:07:59;100304.72;;;45.14;35.05
34103;BME280;20381;54.498;18.206;2023-07-09T08:10:25;100311.50;;;45.58;33.55
34103;BME280;20381;54.498;18.206;2023-07-09T08:12:52;100308.78;;;46.30;32.74
34103;BME280;20381;54.498;18.206;2023-07-09T08:15:20;100310.46;;;46.85;31.06
34103;BME280;20381;54.498;18.206;2023-07-09T08:17:47;100309.82;;;46.91;29.78
34103;BME280;20381;54.498;18.206;2023-07-09T08:20:13;100304.45;;;47.16;28.68
34103;BME280;20381;54.498;18.206;2023-07-09T08:22:40;100302.96;;;46.51;27.67
34103;BME280;20381;54.498;18.206;2023-07-09T08:25:07;100303.13;;;46.78;27.09
34103;BME280;20381;54.498;18.206;2023-07-09T08:27:34;100306.48;;;47.73;25.42
34103;BME280;20381;54.498;18.206;2023-07-09T08:30:01;100308.70;;;48.29;23.59
34103;BME280;20381;54.498;18.206;2023-07-09T08:32:28;100297.78;;;48.08;23.87
34103;BME280;20381;54.498;18.206;2023-07-09T08:34:55;100291.11;;;48.23;23.07
34103;BME280;20381;54.498;18.206;2023-07-09T08:37:22;100286.53;;;47.90;22.49
34103;BME280;20381;54.498;18.206;2023-07-09T08:39:48;100294.41;;;47.97;22.11
34103;BME280;20381;54.498;18.206;2023-07-09T08:42:33;100289.36;;;47.71;21.47
34103;BME280;20381;54.498;18.206;2023-07-09T08:48:06;100291.37;;;49.30;20.66
34103;BME280;20381;54.498;18.206;2023-07-09T08:50:42;100285.45;;;49.23;20.11
34103;BME280;20381;54.498;18.206;2023-07-09T08:53:18;100287.14;;;49.64;19.51
34103;BME280;20381;54.498;18.206;2023-07-09T08:55:43;100288.30;;;49.40;19.07
34103;BME280;20381;54.498;18.206;2023-07-09T08:58:17;100286.33;;;48.87;18.50
34103;BME280;20381;54.498;18.206;2023-07-09T09:05:58;100290.38;;;48.31;17.88
34103;BME280;20381;54.498;18.206;2023-07-09T09:08:36;100294.44;;;48.47;17.66
34103;BME280;20381;54.498;18.206;2023-07-09T09:13:35;100292.36;;;49.54;17.27
34103;BME280;20381;54.498;18.206;2023-07-09T09:16:06;100276.09;;;49.41;16.85
34103;BME280;20381;54.498;18.206;2023-07-09T09:18:37;100295.47;;;49.64;16.58
34103;BME280;20381;54.498;18.206;2023-07-09T09:23:48;100292.25;;;50.08;16.16
34103;BME280;20381;54.498;18.206;2023-07-09T09:26:42;100295.13;;;49.34;16.12
34103;BME280;20381;54.498;18.206;2023-07-09T09:28:48;100289.75;;;49.89;15.69
34103;BME280;20381;54.498;18.206;2023-07-09T09:31:15;100288.67;;;49.47;15.49
34103;BME280;20381;54.498;18.206;2023-07-09T09:33:47;100289.13;;;49.72;15.56
34103;BME280;20381;54.498;18.206;2023-07-09T09:36:21;100289.71;;;50.55;15.49
34103;BME280;20381;54.498;18.206;2023-07-09T09:38:49;100286.45;;;50.88;15.17
34103;BME280;20381;54.498;18.206;2023-07-09T09:41:22;100280.00;;;50.72;14.94
34103;BME280;20381;54.498;18.206;2023-07-09T09:43:51;100285.62;;;51.37;14.93
34103;BME280;20381;54.498;18.206;2023-07-09T09:46:25;100288.42;;;52.62;14.60
34103;BME280;20381;54.498;18.206;2023-07-09T09:49:01;100277.46;;;52.50;13.99
34103;BME280;20381;54.498;18.206;2023-07-09T09:51:28;100282.47;;;51.23;14.10
34103;BME280;20381;54.498;18.206;2023-07-09T09:54:00;100278.78;;;50.04;13.82
34103;BME280;20381;54.498;18.206;2023-07-09T09:56:34;100276.89;;;48.99;13.88
34103;BME280;20381;54.498;18.206;2023-07-09T09:58:59;100277.94;;;48.42;13.74
34103;BME280;20381;54.498;18.206;2023-07-09T10:01:31;100281.43;;;47.95;13.66
34103;BME280;20381;54.498;18.206;2023-07-09T10:03:59;100272.92;;;46.25;13.68
34103;BME280;20381;54.498;18.206;2023-07-09T10:06:41;100278.78;;;45.46;14.08
34103;BME280;20381;54.498;18.206;2023-07-09T10:12:12;100275.31;;;48.09;14.09
34103;BME280;20381;54.498;18.206;2023-07-09T10:17:37;100277.58;;;47.66;14.18
34103;BME280;20381;54.498;18.206;2023-07-09T10:23:00;100264.95;;;46.97;14.39
34103;BME280;20381;54.498;18.206;2023-07-09T10:25:51;100267.00;;;48.23;14.48
34103;BME280;20381;54.498;18.206;2023-07-09T10:34:32;100271.84;;;51.17;14.00
34103;BME280;20381;54.498;18.206;2023-07-09T10:39:48;100277.37;;;52.17;13.54
34103;BME280;20381;54.498;18.206;2023-07-09T10:42:30;100278.53;;;52.85;13.38
34103;BME280;20381;54.498;18.206;2023-07-09T10:45:28;100278.45;;;53.64;13.13
34103;BME280;20381;54.498;18.206;2023-07-09T10:47:35;100274.49;;;54.20;12.98
34103;BME280;20381;54.498;18.206;2023-07-09T10:50:12;100273.72;;;53.64;12.85
34103;BME280;20381;54.498;18.206;2023-07-09T10:52:40;100274.98;;;54.79;12.51
34103;BME280;20381;54.498;18.206;2023-07-09T10:55:25;100276.88;;;55.50;12.19
34103;BME280;20381;54.498;18.206;2023-07-09T10:58:00;100274.75;;;55.22;11.81
34103;BME280;20381;54.498;18.206;2023-07-09T11:00:36;100268.78;;;54.57;11.74
34103;BME280;20381;54.498;18.206;2023-07-09T11:03:24;100269.34;;;54.22;11.71
34103;BME280;20381;54.498;18.206;2023-07-09T11:05:50;100259.72;;;54.48;11.54
34103;BME280;20381;54.498;18.206;2023-07-09T11:08:28;100265.16;;;54.35;11.44
34103;BME280;20381;54.498;18.206;2023-07-09T11:10:58;100267.70;;;54.33;11.40
34103;BME280;20381;54.498;18.206;2023-07-09T11:13:40;100266.39;;;53.84;11.08
34103;BME280;20381;54.498;18.206;2023-07-09T11:16:08;100267.78;;;53.48;11.26
34103;BME280;20381;54.498;18.206;2023-07-09T11:18:36;100265.00;;;52.06;11.17
34103;BME280;20381;54.498;18.206;2023-07-09T11:21:12;100262.83;;;49.49;11.36
34103;BME280;20381;54.498;18.206;2023-07-09T11:23:51;100259.45;;;48.01;11.66
34103;BME280;20381;54.498;18.206;2023-07-09T11:26:28;100257.27;;;46.18;11.67
34103;BME280;20381;54.498;18.206;2023-07-09T11:31:36;100264.08;;;41.07;12.78
34103;BME280;20381;54.498;18.206;2023-07-09T11:39:27;100266.34;;;39.56;14.14
34103;BME280;20381;54.498;18.206;2023-07-09T11:41:55;100257.21;;;38.55;14.55
34103;BME280;20381;54.498;18.206;2023-07-09T11:44:27;100255.30;;;38.69;15.33
34103;BME280;20381;54.498;18.206;2023-07-09T11:52:50;100245.00;;;41.18;15.94
34103;BME280;20381;54.498;18.206;2023-07-09T11:55:44;100251.28;;;42.00;16.45
34103;BME280;20381;54.498;18.206;2023-07-09T11:58:16;100251.08;;;42.20;16.31
34103;BME280;20381;54.498;18.206;2023-07-09T12:00:47;100241.74;;;41.26;16.11
34103;BME280;20381;54.498;18.206;2023-07-09T12:03:35;100240.73;;;40.01;16.38
34103;BME280;20381;54.498;18.206;2023-07-09T12:05:54;100247.50;;;39.07;16.67
34103;BME280;20381;54.498;18.206;2023-07-09T12:08:27;100242.36;;;38.36;16.88
34103;BME280;20381;54.498;18.206;2023-07-09T12:10:59;100242.40;;;36.95;16.75
34103;BME280;20381;54.498;18.206;2023-07-09T12:13:27;100246.59;;;35.07;17.67
34103;BME280;20381;54.498;18.206;2023-07-09T12:15:55;100249.25;;;34.01;18.20
34103;BME280;20381;54.498;18.206;2023-07-09T12:18:28;100251.59;;;33.04;18.20
34103;BME280;20381;54.498;18.206;2023-07-09T12:20:57;100250.88;;;31.97;18.97
34103;BME280;20381;54.498;18.206;2023-07-09T12:23:32;100261.23;;;31.05;19.31
34103;BME280;20381;54.498;18.206;2023-07-09T12:26:04;100261.12;;;30.40;20.67
34103;BME280;20381;54.498;18.206;2023-07-09T12:28:30;100260.23;;;29.99;20.60
34103;BME280;20381;54.498;18.206;2023-07-09T12:31:10;100260.36;;;29.53;21.75
34103;BME280;20381;54.498;18.206;2023-07-09T12:33:29;100248.30;;;29.30;21.84
34103;BME280;20381;54.498;18.206;2023-07-09T12:36:04;100253.28;;;29.18;22.72
34103;BME280;20381;54.498;18.206;2023-07-09T12:38:30;100258.91;;;29.28;23.20
34103;BME280;20381;54.498;18.206;2023-07-09T12:40:59;100251.82;;;29.31;23.90
34103;BME280;20381;54.498;18.206;2023-07-09T12:43:28;100252.97;;;29.51;24.09
34103;BME280;20381;54.498;18.206;2023-07-09T12:46:01;100248.69;;;29.42;24.35
34103;BME280;20381;54.498;18.206;2023-07-09T12:48:30;100254.05;;;29.27;24.81
34103;BME280;20381;54.498;18.206;2023-07-09T12:51:18;100252.05;;;28.44;25.15
34103;BME280;20381;54.498;18.206;2023-07-09T12:53:36;100254.54;;;28.02;25.88
34103;BME280;20381;54.498;18.206;2023-07-09T12:56:07;100242.49;;;27.77;26.27
34103;BME280;20381;54.498;18.206;2023-07-09T12:58:36;100242.20;;;27.60;26.87
34103;BME280;20381;54.498;18.206;2023-07-09T13:01:11;100243.52;;;27.64;27.13
34103;BME280;20381;54.498;18.206;2023-07-09T13:03:37;100250.92;;;27.62;27.56
34103;BME280;20381;54.498;18.206;2023-07-09T13:06:06;100249.59;;;27.45;27.84
34103;BME280;20381;54.498;18.206;2023-07-09T13:08:43;100253.30;;;27.36;28.26
34103;BME280;20381;54.498;18.206;2023-07-09T13:11:17;100251.27;;;27.30;28.72
34103;BME280;20381;54.498;18.206;2023-07-09T13:13:59;100245.24;;;27.24;28.55
34103;BME280;20381;54.498;18.206;2023-07-09T13:16:25;100248.00;;;26.61;29.43
34103;BME280;20381;54.498;18.206;2023-07-09T13:18:51;100248.03;;;26.35;30.05
34103;BME280;20381;54.498;18.206;2023-07-09T13:21:22;100247.34;;;26.25;30.50
34103;BME280;20381;54.498;18.206;2023-07-09T13:23:49;100251.39;;;26.37;31.07
34103;BME280;20381;54.498;18.206;2023-07-09T13:26:17;100249.07;;;26.46;31.25
34103;BME280;20381;54.498;18.206;2023-07-09T13:28:43;100249.19;;;26.24;31.30
34103;BME280;20381;54.498;18.206;2023-07-09T13:31:16;100245.92;;;26.08;31.80
34103;BME280;20381;54.498;18.206;2023-07-09T13:33:50;100247.64;;;25.87;32.23
34103;BME280;20381;54.498;18.206;2023-07-09T13:36:15;100240.55;;;25.78;32.44
34103;BME280;20381;54.498;18.206;2023-07-09T13:38:42;100233.52;;;25.51;32.94